ELLX/LUX METAR and TAF weather

Enter ICAO airport designator
Station Type Date Time Source
ELLX METAR 2020/01/28 04:50 UTC NOAA

ELLX 280450Z 22019G31KT 200V260 4000 -SHRA FEW007 BKN010 05/04 Q0996 TEMPO 22023G35KT 6000


Station Type Date Time Source
ELLX Decoded METAR 2020/01/28 04:50 UTC NOAA

Luxembourg / Luxembourg, Luxembourg (ELLX) 49-37N 006-13E 379M
Jan 27, 2020 - 11:50 PM EST / 2020.01.28 0450 UTC
Wind: from the SW (220 degrees) at 22 MPH (19 KT) gusting to 36 MPH (31 KT) (direction variable):0
Visibility: 2 mile(s):0
Sky conditions: mostly cloudy
Weather: light rain showers
Temperature: 41 F (5 C)
Dew Point: 39 F (4 C)
Relative Humidity: 93%
Pressure (altimeter): 29.41 in. Hg (0996 hPa)
ob: ELLX 280450Z 22019G31KT 200V260 4000 -SHRA FEW007 BKN010 05/04 Q0996 TEMPO 22023G35KT 6000
cycle: 5

Station Type Date Time Source
ELLX TAF 2020/01/27 18:27 UTC NOAA

TAF ELLX 271700Z 2718/2824 22012KT 8000 -RA BKN005
TEMPO 2718/2702 5000 RA
TEMPO 2703/2718 25018G32KT 3000 SHRASN SCT008TCU BKN010
TEMPO 2703/2715 25025G45KT 1500 TSSNGS BKN008CB
TEMPO 2720/2724 1500 -SNRA BKN003

Example: see airport list